sensor_id;sensor_type;location;lat;lon;timestamp;temperature;humidity
3256;DHT22;1640;48.504;9.224;2023-07-30T00:01:09;19.00;99.90
3256;DHT22;1640;48.504;9.224;2023-07-30T00:03:37;18.90;99.90
3256;DHT22;1640;48.504;9.224;2023-07-30T00:06:04;18.80;99.90
3256;DHT22;1640;48.504;9.224;2023-07-30T00:08:32;18.70;99.90
3256;DHT22;1640;48.504;9.224;2023-07-30T00:10:59;18.70;99.90
3256;DHT22;1640;48.504;9.224;2023-07-30T00:13:28;18.70;99.90
3256;DHT22;1640;48.504;9.224;2023-07-30T00:15:56;18.70;99.90
3256;DHT22;1640;48.504;9.224;2023-07-30T00:18:23;18.80;99.90
3256;DHT22;1640;48.504;9.224;2023-07-30T00:20:51;18.80;99.90
3256;DHT22;1640;48.504;9.224;2023-07-30T00:23:18;18.80;99.90
3256;DHT22;1640;48.504;9.224;2023-07-30T00:25:46;18.90;99.90
3256;DHT22;1640;48.504;9.224;2023-07-30T00:28:13;18.90;99.90
3256;DHT22;1640;48.504;9.224;2023-07-30T00:30:42;19.00;99.90
3256;DHT22;1640;48.504;9.224;2023-07-30T00:33:09;19.00;99.90
3256;DHT22;1640;48.504;9.224;2023-07-30T00:35:37;19.10;99.90
3256;DHT22;1640;48.504;9.224;2023-07-30T00:38:04;19.10;99.90
3256;DHT22;1640;48.504;9.224;2023-07-30T00:40:32;19.10;99.90
3256;DHT22;1640;48.504;9.224;2023-07-30T00:42:59;19.10;99.90
3256;DHT22;1640;48.504;9.224;2023-07-30T00:45:27;19.10;99.90
3256;DHT22;1640;48.504;9.224;2023-07-30T00:47:55;19.10;99.90
3256;DHT22;1640;48.504;9.224;2023-07-30T00:50:23;19.10;99.90
3256;DHT22;1640;48.504;9.224;2023-07-30T00:52:51;19.10;99.90
3256;DHT22;1640;48.504;9.224;2023-07-30T00:55:18;19.00;99.90
3256;DHT22;1640;48.504;9.224;2023-07-30T00:57:46;19.00;99.90
3256;DHT22;1640;48.504;9.224;2023-07-30T01:00:14;19.00;99.90
3256;DHT22;1640;48.504;9.224;2023-07-30T01:02:42;19.00;99.90
3256;DHT22;1640;48.504;9.224;2023-07-30T01:05:11;18.90;99.90
3256;DHT22;1640;48.504;9.224;2023-07-30T01:07:39;18.90;99.90
3256;DHT22;1640;48.504;9.224;2023-07-30T01:10:07;18.90;99.90
3256;DHT22;1640;48.504;9.224;2023-07-30T01:12:35;19.00;99.90
3256;DHT22;1640;48.504;9.224;2023-07-30T01:15:04;19.00;99.90
3256;DHT22;1640;48.504;9.224;2023-07-30T01:17:31;19.00;99.90
3256;DHT22;1640;48.504;9.224;2023-07-30T01:19:59;19.00;99.90
3256;DHT22;1640;48.504;9.224;2023-07-30T01:22:28;19.00;99.90
3256;DHT22;1640;48.504;9.224;2023-07-30T01:24:55;19.00;99.90
3256;DHT22;1640;48.504;9.224;2023-07-30T01:27:25;19.00;99.90
3256;DHT22;1640;48.504;9.224;2023-07-30T01:29:56;19.00;99.90
3256;DHT22;1640;48.504;9.224;2023-07-30T01:32:27;19.00;99.90
3256;DHT22;1640;48.504;9.224;2023-07-30T01:34:57;19.00;99.90
3256;DHT22;1640;48.504;9.224;2023-07-30T01:37:25;18.90;99.90
3256;DHT22;1640;48.504;9.224;2023-07-30T01:39:55;18.90;99.90
3256;DHT22;1640;48.504;9.224;2023-07-30T01:42:28;19.00;99.90
3256;DHT22;1640;48.504;9.224;2023-07-30T01:44:56;18.90;99.90
3256;DHT22;1640;48.504;9.224;2023-07-30T01:47:23;18.90;99.90
3256;DHT22;1640;48.504;9.224;2023-07-30T01:49:50;18.80;99.90
3256;DHT22;1640;48.504;9.224;2023-07-30T01:52:18;18.80;99.90
3256;DHT22;1640;48.504;9.224;2023-07-30T01:54:46;18.60;99.90
3256;DHT22;1640;48.504;9.224;2023-07-30T01:57:15;18.50;99.90
3256;DHT22;1640;48.504;9.224;2023-07-30T01:59:42;18.40;99.90
3256;DHT22;1640;48.504;9.224;2023-07-30T02:02:10;18.30;99.90
3256;DHT22;1640;48.504;9.224;2023-07-30T02:04:37;18.20;99.90
3256;DHT22;1640;48.504;9.224;2023-07-30T02:07:05;18.10;99.90
3256;DHT22;1640;48.504;9.224;2023-07-30T02:09:32;18.00;99.90
3256;DHT22;1640;48.504;9.224;2023-07-30T02:12:00;18.00;99.90
3256;DHT22;1640;48.504;9.224;2023-07-30T02:14:28;17.90;99.90
3256;DHT22;1640;48.504;9.224;2023-07-30T02:16:56;17.90;99.90
3256;DHT22;1640;48.504;9.224;2023-07-30T02:19:23;17.80;99.90
3256;DHT22;1640;48.504;9.224;2023-07-30T02:21:51;17.80;99.90
3256;DHT22;1640;48.504;9.224;2023-07-30T02:24:18;17.80;99.90
3256;DHT22;1640;48.504;9.224;2023-07-30T02:26:46;17.80;99.90
3256;DHT22;1640;48.504;9.224;2023-07-30T02:29:14;17.90;99.90
3256;DHT22;1640;48.504;9.224;2023-07-30T02:31:43;17.80;99.90
3256;DHT22;1640;48.504;9.224;2023-07-30T02:34:10;17.80;99.90
3256;DHT22;1640;48.504;9.224;2023-07-30T02:36:38;17.80;99.90
3256;DHT22;1640;48.504;9.224;2023-07-30T02:39:05;17.80;99.90
3256;DHT22;1640;48.504;9.224;2023-07-30T02:41:33;17.80;99.90
3256;DHT22;1640;48.504;9.224;2023-07-30T02:44:00;17.80;99.90
3256;DHT22;1640;48.504;9.224;2023-07-30T02:46:28;17.70;99.90
3256;DHT22;1640;48.504;9.224;2023-07-30T02:48:57;17.80;99.90
3256;DHT22;1640;48.504;9.224;2023-07-30T02:51:24;17.70;99.90
3256;DHT22;1640;48.504;9.224;2023-07-30T02:53:52;17.70;99.90
3256;DHT22;1640;48.504;9.224;2023-07-30T02:56:20;17.70;99.90
3256;DHT22;1640;48.504;9.224;2023-07-30T02:58:48;17.70;99.90
3256;DHT22;1640;48.504;9.224;2023-07-30T03:01:15;17.60;99.90
3256;DHT22;1640;48.504;9.224;2023-07-30T03:03:43;17.60;99.90
3256;DHT22;1640;48.504;9.224;2023-07-30T03:06:12;17.60;99.90
3256;DHT22;1640;48.504;9.224;2023-07-30T03:08:40;17.60;99.90
3256;DHT22;1640;48.504;9.224;2023-07-30T03:11:07;17.50;99.90
3256;DHT22;1640;48.504;9.224;2023-07-30T03:13:35;17.50;99.90
3256;DHT22;1640;48.504;9.224;2023-07-30T03:16:02;17.50;99.90
3256;DHT22;1640;48.504;9.224;2023-07-30T03:18:30;17.40;99.90
3256;DHT22;1640;48.504;9.224;2023-07-30T03:20:58;17.40;99.90
3256;DHT22;1640;48.504;9.224;2023-07-30T03:23:28;17.40;99.90
3256;DHT22;1640;48.504;9.224;2023-07-30T03:25:55;17.40;99.90
3256;DHT22;1640;48.504;9.224;2023-07-30T03:28:22;17.40;99.90
3256;DHT22;1640;48.504;9.224;2023-07-30T03:30:50;17.40;99.90
3256;DHT22;1640;48.504;9.224;2023-07-30T03:33:17;17.50;99.90
3256;DHT22;1640;48.504;9.224;2023-07-30T03:35:45;17.50;99.90
3256;DHT22;1640;48.504;9.224;2023-07-30T03:38:12;17.60;99.90
3256;DHT22;1640;48.504;9.224;2023-07-30T03:40:41;17.70;99.90
3256;DHT22;1640;48.504;9.224;2023-07-30T03:43:09;17.80;99.90
3256;DHT22;1640;48.504;9.224;2023-07-30T03:45:36;17.80;99.90
3256;DHT22;1640;48.504;9.224;2023-07-30T03:48:04;17.80;99.90
3256;DHT22;1640;48.504;9.224;2023-07-30T03:50:31;17.80;99.90
3256;DHT22;1640;48.504;9.224;2023-07-30T03:52:59;17.80;99.90
3256;DHT22;1640;48.504;9.224;2023-07-30T03:55:26;17.80;99.90
3256;DHT22;1640;48.504;9.224;2023-07-30T03:57:55;17.90;99.90
3256;DHT22;1640;48.504;9.224;2023-07-30T04:00:24;17.90;99.90
3256;DHT22;1640;48.504;9.224;2023-07-30T04:02:52;18.00;99.90
3256;DHT22;1640;48.504;9.224;2023-07-30T04:05:19;18.00;99.90
3256;DHT22;1640;48.504;9.224;2023-07-30T04:07:47;18.00;99.90
3256;DHT22;1640;48.504;9.224;2023-07-30T04:10:14;18.10;99.90
3256;DHT22;1640;48.504;9.224;2023-07-30T04:12:42;18.20;99.90
3256;DHT22;1640;48.504;9.224;2023-07-30T04:15:11;18.20;99.90
3256;DHT22;1640;48.504;9.224;2023-07-30T04:17:38;18.30;99.90
3256;DHT22;1640;48.504;9.224;2023-07-30T04:20:07;18.40;99.90
3256;DHT22;1640;48.504;9.224;2023-07-30T04:22:35;18.50;99.90
3256;DHT22;1640;48.504;9.224;2023-07-30T04:25:04;18.50;99.90
3256;DHT22;1640;48.504;9.224;2023-07-30T04:27:31;18.50;99.90
3256;DHT22;1640;48.504;9.224;2023-07-30T04:29:59;18.60;99.90
3256;DHT22;1640;48.504;9.224;2023-07-30T04:32:27;18.70;99.90
3256;DHT22;1640;48.504;9.224;2023-07-30T04:34:55;18.60;99.90
3256;DHT22;1640;48.504;9.224;2023-07-30T04:37:22;18.70;99.90
3256;DHT22;1640;48.504;9.224;2023-07-30T04:39:50;18.70;99.90
3256;DHT22;1640;48.504;9.224;2023-07-30T04:42:17;18.80;99.90
3256;DHT22;1640;48.504;9.224;2023-07-30T04:44:45;18.80;99.90
3256;DHT22;1640;48.504;9.224;2023-07-30T04:47:12;18.80;99.90
3256;DHT22;1640;48.504;9.224;2023-07-30T04:49:41;18.80;99.90
3256;DHT22;1640;48.504;9.224;2023-07-30T04:52:09;18.90;99.90
3256;DHT22;1640;48.504;9.224;2023-07-30T04:54:36;18.80;99.90
3256;DHT22;1640;48.504;9.224;2023-07-30T04:57:05;18.90;99.90
3256;DHT22;1640;48.504;9.224;2023-07-30T04:59:32;18.90;99.90
3256;DHT22;1640;48.504;9.224;2023-07-30T05:02:00;18.90;99.90
3256;DHT22;1640;48.504;9.224;2023-07-30T05:04:28;19.00;99.90
3256;DHT22;1640;48.504;9.224;2023-07-30T05:06:57;19.00;99.90
3256;DHT22;1640;48.504;9.224;2023-07-30T05:09:24;19.00;99.90
3256;DHT22;1640;48.504;9.224;2023-07-30T05:11:52;19.00;99.90
3256;DHT22;1640;48.504;9.224;2023-07-30T05:14:19;19.10;99.90
3256;DHT22;1640;48.504;9.224;2023-07-30T05:16:46;19.10;99.90
3256;DHT22;1640;48.504;9.224;2023-07-30T05:19:15;19.20;99.90
3256;DHT22;1640;48.504;9.224;2023-07-30T05:21:42;19.30;99.90
3256;DHT22;1640;48.504;9.224;2023-07-30T05:24:11;19.40;99.90
3256;DHT22;1640;48.504;9.224;2023-07-30T05:26:39;19.50;99.90
3256;DHT22;1640;48.504;9.224;2023-07-30T05:29:06;19.50;99.90
3256;DHT22;1640;48.504;9.224;2023-07-30T05:31:34;19.70;99.90
3256;DHT22;1640;48.504;9.224;2023-07-30T05:34:01;19.80;99.90
3256;DHT22;1640;48.504;9.224;2023-07-30T05:36:29;19.90;99.90
3256;DHT22;1640;48.504;9.224;2023-07-30T05:38:56;20.00;99.90
3256;DHT22;1640;48.504;9.224;2023-07-30T05:41:25;20.10;99.90
3256;DHT22;1640;48.504;9.224;2023-07-30T05:43:52;20.10;99.90
3256;DHT22;1640;48.504;9.224;2023-07-30T05:46:20;20.20;99.90
3256;DHT22;1640;48.504;9.224;2023-07-30T05:48:47;20.30;99.90
3256;DHT22;1640;48.504;9.224;2023-07-30T05:51:15;20.30;99.90
3256;DHT22;1640;48.504;9.224;2023-07-30T05:53:42;20.40;99.90
3256;DHT22;1640;48.504;9.224;2023-07-30T05:56:10;20.40;99.90
3256;DHT22;1640;48.504;9.224;2023-07-30T05:58:40;20.30;99.90
3256;DHT22;1640;48.504;9.224;2023-07-30T06:01:08;20.30;99.90
3256;DHT22;1640;48.504;9.224;2023-07-30T06:03:35;20.50;99.90
3256;DHT22;1640;48.504;9.224;2023-07-30T06:06:03;20.60;99.90
3256;DHT22;1640;48.504;9.224;2023-07-30T06:08:30;20.70;99.90
3256;DHT22;1640;48.504;9.224;2023-07-30T06:11:00;20.80;99.90
3256;DHT22;1640;48.504;9.224;2023-07-30T06:13:29;21.00;99.90
3256;DHT22;1640;48.504;9.224;2023-07-30T06:15:58;20.90;99.90
3256;DHT22;1640;48.504;9.224;2023-07-30T06:18:25;20.90;99.90
3256;DHT22;1640;48.504;9.224;2023-07-30T06:20:53;20.80;99.90
3256;DHT22;1640;48.504;9.224;2023-07-30T06:23:20;20.80;99.90
3256;DHT22;1640;48.504;9.224;2023-07-30T06:25:47;20.60;99.90
3256;DHT22;1640;48.504;9.224;2023-07-30T06:28:15;20.50;99.90
3256;DHT22;1640;48.504;9.224;2023-07-30T06:30:42;20.50;99.90
3256;DHT22;1640;48.504;9.224;2023-07-30T06:33:11;20.50;99.90
3256;DHT22;1640;48.504;9.224;2023-07-30T06:35:39;20.70;99.90
3256;DHT22;1640;48.504;9.224;2023-07-30T06:38:08;20.80;99.90
3256;DHT22;1640;48.504;9.224;2023-07-30T06:40:36;21.00;99.90
3256;DHT22;1640;48.504;9.224;2023-07-30T06:43:03;21.10;99.90
3256;DHT22;1640;48.504;9.224;2023-07-30T06:45:31;21.10;99.90
3256;DHT22;1640;48.504;9.224;2023-07-30T06:47:58;20.90;99.90
3256;DHT22;1640;48.504;9.224;2023-07-30T06:50:27;20.90;99.90
3256;DHT22;1640;48.504;9.224;2023-07-30T06:52:54;20.90;99.90
3256;DHT22;1640;48.504;9.224;2023-07-30T06:55:22;20.80;99.90
3256;DHT22;1640;48.504;9.224;2023-07-30T06:57:49;21.00;99.90
3256;DHT22;1640;48.504;9.224;2023-07-30T07:00:17;20.90;99.90
3256;DHT22;1640;48.504;9.224;2023-07-30T07:02:47;21.00;99.90
3256;DHT22;1640;48.504;9.224;2023-07-30T07:05:15;21.10;99.90
3256;DHT22;1640;48.504;9.224;2023-07-30T07:07:45;21.30;99.90
3256;DHT22;1640;48.504;9.224;2023-07-30T07:10:12;21.60;4.10
3256;DHT22;1640;48.504;9.224;2023-07-30T07:12:41;21.80;10.70
3256;DHT22;1640;48.504;9.224;2023-07-30T07:15:08;22.00;14.60
3256;DHT22;1640;48.504;9.224;2023-07-30T07:17:36;22.10;22.70
3256;DHT22;1640;48.504;9.224;2023-07-30T07:20:04;22.10;29.70
3256;DHT22;1640;48.504;9.224;2023-07-30T07:22:33;22.20;29.10
3256;DHT22;1640;48.504;9.224;2023-07-30T07:25:01;22.00;32.70
3256;DHT22;1640;48.504;9.224;2023-07-30T07:27:29;22.00;27.50
3256;DHT22;1640;48.504;9.224;2023-07-30T07:29:57;22.20;25.90
3256;DHT22;1640;48.504;9.224;2023-07-30T07:32:25;22.30;29.10
3256;DHT22;1640;48.504;9.224;2023-07-30T07:34:53;22.20;29.50
3256;DHT22;1640;48.504;9.224;2023-07-30T07:37:20;22.40;28.70
3256;DHT22;1640;48.504;9.224;2023-07-30T07:39:48;22.80;31.60
3256;DHT22;1640;48.504;9.224;2023-07-30T07:42:17;23.00;41.30
3256;DHT22;1640;48.504;9.224;2023-07-30T07:44:44;23.00;43.70
3256;DHT22;1640;48.504;9.224;2023-07-30T07:47:12;22.70;40.00
3256;DHT22;1640;48.504;9.224;2023-07-30T07:49:40;22.00;13.90
3256;DHT22;1640;48.504;9.224;2023-07-30T07:52:07;20.80;13.90
3256;DHT22;1640;48.504;9.224;2023-07-30T07:54:35;19.90;13.90
3256;DHT22;1640;48.504;9.224;2023-07-30T07:57:03;19.20;13.90
3256;DHT22;1640;48.504;9.224;2023-07-30T07:59:32;19.00;13.90
3256;DHT22;1640;48.504;9.224;2023-07-30T08:01:59;18.80;13.90
3256;DHT22;1640;48.504;9.224;2023-07-30T08:04:27;18.90;13.90
3256;DHT22;1640;48.504;9.224;2023-07-30T08:06:54;19.00;13.90
3256;DHT22;1640;48.504;9.224;2023-07-30T08:09:26;19.10;13.90
3256;DHT22;1640;48.504;9.224;2023-07-30T08:11:53;19.10;13.90
3256;DHT22;1640;48.504;9.224;2023-07-30T08:14:20;19.30;13.90
3256;DHT22;1640;48.504;9.224;2023-07-30T08:16:49;19.30;13.90
3256;DHT22;1640;48.504;9.224;2023-07-30T08:19:17;19.50;13.90
3256;DHT22;1640;48.504;9.224;2023-07-30T08:21:44;19.70;13.90
3256;DHT22;1640;48.504;9.224;2023-07-30T08:24:12;19.90;13.90
3256;DHT22;1640;48.504;9.224;2023-07-30T08:26:39;20.30;13.90
3256;DHT22;1640;48.504;9.224;2023-07-30T08:29:07;20.50;13.90
3256;DHT22;1640;48.504;9.224;2023-07-30T08:31:36;20.80;13.90
3256;DHT22;1640;48.504;9.224;2023-07-30T08:34:05;21.30;13.90
3256;DHT22;1640;48.504;9.224;2023-07-30T08:36:32;21.40;13.90
3256;DHT22;1640;48.504;9.224;2023-07-30T08:39:00;21.70;13.90
3256;DHT22;1640;48.504;9.224;2023-07-30T08:41:28;22.00;13.90
3256;DHT22;1640;48.504;9.224;2023-07-30T08:43:56;22.00;99.90
3256;DHT22;1640;48.504;9.224;2023-07-30T08:46:24;22.00;99.90
3256;DHT22;1640;48.504;9.224;2023-07-30T08:48:51;22.10;99.90
3256;DHT22;1640;48.504;9.224;2023-07-30T08:51:21;22.40;99.90
3256;DHT22;1640;48.504;9.224;2023-07-30T08:53:51;22.50;13.10
3256;DHT22;1640;48.504;9.224;2023-07-30T08:56:19;22.40;11.80
3256;DHT22;1640;48.504;9.224;2023-07-30T08:58:47;22.40;13.80
3256;DHT22;1640;48.504;9.224;2023-07-30T09:01:18;22.40;18.60
3256;DHT22;1640;48.504;9.224;2023-07-30T09:03:47;22.30;8.70
3256;DHT22;1640;48.504;9.224;2023-07-30T09:06:15;22.40;22.10
3256;DHT22;1640;48.504;9.224;2023-07-30T09:08:44;22.60;16.60
3256;DHT22;1640;48.504;9.224;2023-07-30T09:11:12;22.70;23.80
3256;DHT22;1640;48.504;9.224;2023-07-30T09:13:40;22.70;19.20
3256;DHT22;1640;48.504;9.224;2023-07-30T09:16:09;22.70;26.00
3256;DHT22;1640;48.504;9.224;2023-07-30T09:18:40;22.80;16.00
3256;DHT22;1640;48.504;9.224;2023-07-30T09:21:10;23.00;22.70
3256;DHT22;1640;48.504;9.224;2023-07-30T09:23:41;23.00;29.30
3256;DHT22;1640;48.504;9.224;2023-07-30T09:26:10;22.80;33.30
3256;DHT22;1640;48.504;9.224;2023-07-30T09:28:39;22.60;33.30
3256;DHT22;1640;48.504;9.224;2023-07-30T09:31:08;22.30;22.70
3256;DHT22;1640;48.504;9.224;2023-07-30T09:33:40;21.90;13.00
3256;DHT22;1640;48.504;9.224;2023-07-30T09:36:08;21.60;5.20
3256;DHT22;1640;48.504;9.224;2023-07-30T09:38:39;21.40;99.90
3256;DHT22;1640;48.504;9.224;2023-07-30T09:41:06;21.20;99.90
3256;DHT22;1640;48.504;9.224;2023-07-30T09:43:36;21.20;99.90
3256;DHT22;1640;48.504;9.224;2023-07-30T09:46:06;21.10;99.90
3256;DHT22;1640;48.504;9.224;2023-07-30T09:48:34;20.90;99.90
3256;DHT22;1640;48.504;9.224;2023-07-30T09:51:03;20.90;99.90
3256;DHT22;1640;48.504;9.224;2023-07-30T09:53:32;20.80;99.90
3256;DHT22;1640;48.504;9.224;2023-07-30T09:56:01;20.40;99.90
3256;DHT22;1640;48.504;9.224;2023-07-30T09:58:29;20.20;19.80
3256;DHT22;1640;48.504;9.224;2023-07-30T10:00:58;20.00;29.50
3256;DHT22;1640;48.504;9.224;2023-07-30T10:03:26;20.00;24.70
3256;DHT22;1640;48.504;9.224;2023-07-30T10:05:58;20.40;27.30
3256;DHT22;1640;48.504;9.224;2023-07-30T10:08:29;20.70;39.90
3256;DHT22;1640;48.504;9.224;2023-07-30T10:10:59;21.00;38.80
3256;DHT22;1640;48.504;9.224;2023-07-30T10:13:28;20.90;42.20
3256;DHT22;1640;48.504;9.224;2023-07-30T10:15:57;21.00;41.30
3256;DHT22;1640;48.504;9.224;2023-07-30T10:18:33;21.10;36.90
3256;DHT22;1640;48.504;9.224;2023-07-30T10:21:01;21.20;34.20
3256;DHT22;1640;48.504;9.224;2023-07-30T10:23:32;21.40;43.30
3256;DHT22;1640;48.504;9.224;2023-07-30T10:26:09;21.40;41.70
3256;DHT22;1640;48.504;9.224;2023-07-30T10:28:37;21.40;42.50
3256;DHT22;1640;48.504;9.224;2023-07-30T10:31:07;21.40;45.70
3256;DHT22;1640;48.504;9.224;2023-07-30T10:33:44;21.50;45.20
3256;DHT22;1640;48.504;9.224;2023-07-30T10:36:13;21.90;43.00
3256;DHT22;1640;48.504;9.224;2023-07-30T10:38:40;22.10;51.20
3256;DHT22;1640;48.504;9.224;2023-07-30T10:41:10;22.20;55.90
3256;DHT22;1640;48.504;9.224;2023-07-30T10:43:40;22.00;56.30
3256;DHT22;1640;48.504;9.224;2023-07-30T10:46:11;22.00;55.60
3256;DHT22;1640;48.504;9.224;2023-07-30T10:48:40;22.10;58.10
3256;DHT22;1640;48.504;9.224;2023-07-30T10:51:10;22.00;56.30
3256;DHT22;1640;48.504;9.224;2023-07-30T10:53:38;22.00;52.80
3256;DHT22;1640;48.504;9.224;2023-07-30T10:56:06;22.00;49.40
3256;DHT22;1640;48.504;9.224;2023-07-30T10:58:35;22.00;53.30
3256;DHT22;1640;48.504;9.224;2023-07-30T11:01:04;22.10;59.30
3256;DHT22;1640;48.504;9.224;2023-07-30T11:03:34;22.20;59.60
3256;DHT22;1640;48.504;9.224;2023-07-30T11:06:03;22.40;62.60
3256;DHT22;1640;48.504;9.224;2023-07-30T11:08:34;22.60;65.50
3256;DHT22;1640;48.504;9.224;2023-07-30T11:11:03;22.90;67.50
3256;DHT22;1640;48.504;9.224;2023-07-30T11:13:35;23.20;70.20
3256;DHT22;1640;48.504;9.224;2023-07-30T11:16:04;23.20;69.00
3256;DHT22;1640;48.504;9.224;2023-07-30T11:18:33;23.40;68.50
3256;DHT22;1640;48.504;9.224;2023-07-30T11:21:05;23.50;67.60
3256;DHT22;1640;48.504;9.224;2023-07-30T11:23:33;23.70;69.90
3256;DHT22;1640;48.504;9.224;2023-07-30T11:26:01;24.00;69.20
3256;DHT22;1640;48.504;9.224;2023-07-30T11:28:29;24.10;69.50
3256;DHT22;1640;48.504;9.224;2023-07-30T11:31:00;24.10;71.10
3256;DHT22;1640;48.504;9.224;2023-07-30T11:33:28;24.00;70.80
3256;DHT22;1640;48.504;9.224;2023-07-30T11:35:58;24.20;70.60
3256;DHT22;1640;48.504;9.224;2023-07-30T11:38:28;24.30;70.50
3256;DHT22;1640;48.504;9.224;2023-07-30T11:40:56;24.00;71.10
3256;DHT22;1640;48.504;9.224;2023-07-30T11:46:06;23.10;71.20
3256;DHT22;1640;48.504;9.224;2023-07-30T11:48:34;22.90;72.20
3256;DHT22;1640;48.504;9.224;2023-07-30T11:51:04;22.70;71.90
3256;DHT22;1640;48.504;9.224;2023-07-30T11:53:45;22.80;71.90
3256;DHT22;1640;48.504;9.224;2023-07-30T11:56:20;22.80;71.60
3256;DHT22;1640;48.504;9.224;2023-07-30T11:58:50;22.90;71.60
3256;DHT22;1640;48.504;9.224;2023-07-30T12:01:18;23.00;71.20
3256;DHT22;1640;48.504;9.224;2023-07-30T12:03:45;23.20;70.90
3256;DHT22;1640;48.504;9.224;2023-07-30T12:06:16;23.60;70.60
3256;DHT22;1640;48.504;9.224;2023-07-30T12:08:43;24.10;69.20
3256;DHT22;1640;48.504;9.224;2023-07-30T12:11:11;24.30;69.20
3256;DHT22;1640;48.504;9.224;2023-07-30T12:13:47;24.30;68.20
3256;DHT22;1640;48.504;9.224;2023-07-30T12:16:16;24.20;67.60
3256;DHT22;1640;48.504;9.224;2023-07-30T12:18:43;24.00;68.20
3256;DHT22;1640;48.504;9.224;2023-07-30T12:21:11;23.90;69.00
3256;DHT22;1640;48.504;9.224;2023-07-30T12:23:40;24.00;68.30
3256;DHT22;1640;48.504;9.224;2023-07-30T12:26:09;24.10;68.90
3256;DHT22;1640;48.504;9.224;2023-07-30T12:28:36;24.00;66.90
3256;DHT22;1640;48.504;9.224;2023-07-30T12:31:04;23.70;66.20
3256;DHT22;1640;48.504;9.224;2023-07-30T12:33:31;23.80;68.90
3256;DHT22;1640;48.504;9.224;2023-07-30T12:35:59;24.00;67.80
3256;DHT22;1640;48.504;9.224;2023-07-30T12:38:26;23.90;66.00
3256;DHT22;1640;48.504;9.224;2023-07-30T12:40:55;23.90;68.20
3256;DHT22;1640;48.504;9.224;2023-07-30T12:43:23;24.10;67.90
3256;DHT22;1640;48.504;9.224;2023-07-30T12:45:50;24.10;65.60
3256;DHT22;1640;48.504;9.224;2023-07-30T12:48:18;24.10;67.00
3256;DHT22;1640;48.504;9.224;2023-07-30T12:50:48;24.30;65.50
3256;DHT22;1640;48.504;9.224;2023-07-30T12:53:15;24.20;64.50
3256;DHT22;1640;48.504;9.224;2023-07-30T12:55:43;24.40;64.20
3256;DHT22;1640;48.504;9.224;2023-07-30T12:58:12;24.30;66.30
3256;DHT22;1640;48.504;9.224;2023-07-30T13:00:39;24.20;65.50
3256;DHT22;1640;48.504;9.224;2023-07-30T13:03:07;24.00;65.00
3256;DHT22;1640;48.504;9.224;2023-07-30T13:05:34;23.90;65.90
3256;DHT22;1640;48.504;9.224;2023-07-30T13:08:02;23.90;65.60
3256;DHT22;1640;48.504;9.224;2023-07-30T13:10:29;23.80;65.50
3256;DHT22;1640;48.504;9.224;2023-07-30T13:12:57;23.70;66.00
3256;DHT22;1640;48.504;9.224;2023-07-30T13:15:26;23.90;67.00
3256;DHT22;1640;48.504;9.224;2023-07-30T13:17:55;23.70;65.70
3256;DHT22;1640;48.504;9.224;2023-07-30T13:20:22;23.50;65.60
3256;DHT22;1640;48.504;9.224;2023-07-30T13:22:50;23.80;65.60
3256;DHT22;1640;48.504;9.224;2023-07-30T13:25:18;24.20;64.20
3256;DHT22;1640;48.504;9.224;2023-07-30T13:27:46;24.00;65.20
3256;DHT22;1640;48.504;9.224;2023-07-30T13:30:13;23.70;65.90
3256;DHT22;1640;48.504;9.224;2023-07-30T13:32:42;23.40;68.00
3256;DHT22;1640;48.504;9.224;2023-07-30T13:35:09;23.20;69.30
3256;DHT22;1640;48.504;9.224;2023-07-30T13:37:37;23.50;69.60
3256;DHT22;1640;48.504;9.224;2023-07-30T13:40:05;23.70;67.90
3256;DHT22;1640;48.504;9.224;2023-07-30T13:42:33;23.80;69.00
3256;DHT22;1640;48.504;9.224;2023-07-30T13:45:00;23.90;68.20
3256;DHT22;1640;48.504;9.224;2023-07-30T13:47:30;23.90;67.20
3256;DHT22;1640;48.504;9.224;2023-07-30T13:49:59;23.60;68.60
3256;DHT22;1640;48.504;9.224;2023-07-30T13:52:27;23.60;69.80
3256;DHT22;1640;48.504;9.224;2023-07-30T13:54:54;23.80;69.00
3256;DHT22;1640;48.504;9.224;2023-07-30T13:57:22;24.00;68.60
3256;DHT22;1640;48.504;9.224;2023-07-30T13:59:50;23.80;68.80
3256;DHT22;1640;48.504;9.224;2023-07-30T14:02:18;23.80;70.00
3256;DHT22;1640;48.504;9.224;2023-07-30T14:04:45;24.00;68.20
3256;DHT22;1640;48.504;9.224;2023-07-30T14:07:14;23.90;68.60
3256;DHT22;1640;48.504;9.224;2023-07-30T14:09:41;23.70;68.80
3256;DHT22;1640;48.504;9.224;2023-07-30T14:12:09;23.40;69.50
3256;DHT22;1640;48.504;9.224;2023-07-30T14:14:37;23.30;70.20
3256;DHT22;1640;48.504;9.224;2023-07-30T14:17:04;23.00;70.80
3256;DHT22;1640;48.504;9.224;2023-07-30T14:19:33;22.90;71.20
3256;DHT22;1640;48.504;9.224;2023-07-30T14:22:01;22.90;71.30
3256;DHT22;1640;48.504;9.224;2023-07-30T14:24:30;22.90;71.90
3256;DHT22;1640;48.504;9.224;2023-07-30T14:26:57;23.10;71.30
3256;DHT22;1640;48.504;9.224;2023-07-30T14:29:25;23.50;70.00
3256;DHT22;1640;48.504;9.224;2023-07-30T14:31:52;23.60;69.90
3256;DHT22;1640;48.504;9.224;2023-07-30T14:34:20;23.60;69.50
3256;DHT22;1640;48.504;9.224;2023-07-30T14:36:47;23.90;70.30
3256;DHT22;1640;48.504;9.224;2023-07-30T14:39:15;24.50;67.00
3256;DHT22;1640;48.504;9.224;2023-07-30T14:41:44;25.90;64.30
3256;DHT22;1640;48.504;9.224;2023-07-30T14:44:11;26.80;57.00
3256;DHT22;1640;48.504;9.224;2023-07-30T14:46:38;26.20;57.50
3256;DHT22;1640;48.504;9.224;2023-07-30T14:49:06;25.80;59.90
3256;DHT22;1640;48.504;9.224;2023-07-30T14:51:34;25.30;61.40
3256;DHT22;1640;48.504;9.224;2023-07-30T14:54:01;25.00;63.00
3256;DHT22;1640;48.504;9.224;2023-07-30T14:56:29;25.00;62.00
3256;DHT22;1640;48.504;9.224;2023-07-30T14:58:58;24.40;63.00
3256;DHT22;1640;48.504;9.224;2023-07-30T15:01:28;23.70;64.50
3256;DHT22;1640;48.504;9.224;2023-07-30T15:03:56;23.40;65.30
3256;DHT22;1640;48.504;9.224;2023-07-30T15:06:24;23.20;66.60
3256;DHT22;1640;48.504;9.224;2023-07-30T15:08:53;23.30;67.50
3256;DHT22;1640;48.504;9.224;2023-07-30T15:11:21;24.10;63.90
3256;DHT22;1640;48.504;9.224;2023-07-30T15:13:48;24.10;64.60
3256;DHT22;1640;48.504;9.224;2023-07-30T15:16:17;25.00;62.00
3256;DHT22;1640;48.504;9.224;2023-07-30T15:18:45;25.40;59.70
3256;DHT22;1640;48.504;9.224;2023-07-30T15:21:13;25.20;58.20
3256;DHT22;1640;48.504;9.224;2023-07-30T15:23:42;24.70;61.00
3256;DHT22;1640;48.504;9.224;2023-07-30T15:26:10;24.20;62.30
3256;DHT22;1640;48.504;9.224;2023-07-30T15:28:37;24.00;62.90
3256;DHT22;1640;48.504;9.224;2023-07-30T15:31:05;24.10;62.00
3256;DHT22;1640;48.504;9.224;2023-07-30T15:33:33;24.90;61.10
3256;DHT22;1640;48.504;9.224;2023-07-30T15:36:01;25.30;58.40
3256;DHT22;1640;48.504;9.224;2023-07-30T15:38:29;24.80;59.60
3256;DHT22;1640;48.504;9.224;2023-07-30T15:40:56;25.10;59.70
3256;DHT22;1640;48.504;9.224;2023-07-30T15:43:24;26.20;57.00
3256;DHT22;1640;48.504;9.224;2023-07-30T15:45:52;26.90;52.80
3256;DHT22;1640;48.504;9.224;2023-07-30T15:48:27;26.50;52.70
3256;DHT22;1640;48.504;9.224;2023-07-30T15:50:56;25.60;54.30
3256;DHT22;1640;48.504;9.224;2023-07-30T15:53:27;24.70;55.80
3256;DHT22;1640;48.504;9.224;2023-07-30T15:55:54;23.70;58.90
3256;DHT22;1640;48.504;9.224;2023-07-30T15:58:22;23.30;60.90
3256;DHT22;1640;48.504;9.224;2023-07-30T16:00:49;23.00;61.00
3256;DHT22;1640;48.504;9.224;2023-07-30T16:03:17;23.00;61.60
3256;DHT22;1640;48.504;9.224;2023-07-30T16:05:46;23.00;61.40
3256;DHT22;1640;48.504;9.224;2023-07-30T16:08:16;23.40;62.20
3256;DHT22;1640;48.504;9.224;2023-07-30T16:10:43;23.90;59.50